Sivrihisar Airport

LTAV · 埃斯基谢希尔省, 土耳其

使用的METAR站距离机场77 km。
罗盘
风向 的 风向 070° Sivrihisar Airport 11/29
风: 4 kt, 2 beaufort

3 kt

3 kt
改变
0 ft 1.000 2.000 3.000 4.000 5.000
Cloud Cloud Cloud Cloud Cloud Cloud
BKN 4.000
METAR LTBI 231650Z 07004KT 9999 BKN040 10/M01 Q1020 NOSIG RMK RWY08 09004KT

METAR Sivrihisar Airport - LTAV

Sivrihisar Airport是,土耳其中的中型机场。 该机场位于纬度39,45145和经度31,36505。 该机场有一条跑道: 11/29. 本场的ICAO机场代码为LTAV。 机场在Istanbul FIR中。

该航空气象观测是针对Eskişehir Air Base在2024年2月23日 19:50, 当地时间进行的。

机场观察

风向为070°,速度为4 kt。

可见度为10 km 或者更多。

有碎云在4.000 ft的高度。 破损或更高的上限为4.000 ft。

温度为10 °C,阵风为8 °C。 露点为-1 °C,相对湿度为47%。 海平面上的气压为1020 hPa (QNH)。

白天

今天,太阳从07:36升起,在18:39降落。 这适用于Sivrihisar Airport,世界夏令时可能有所不同。 当地时间与世界标准时间之间的时差为+3 小时。 当前,没有夏令时有效。

公司介绍

我们没有关于这个机场的公司信息。

体会

到Vliegles.nl去找飞行课程,跳伞和其他飞行体验。 浏览页面,了解Sivrihisar Airport附近所有可用的活动。 你也可以使用搜索功能来寻找你所在地附近的特定飞行课程、跳伞或其他飞行体验。

跑道

Id 标题 侧风 逆风 侧风 %
11/29 113°-293° 3 kt 3 kt 68 %

逆风成分最大的方向会被突出显示,并用于横风计算。 这并不一定意味着这个方向在使用。

乌云

4.000 ft BKN 碎云

温度 & 天气

温度 10 °C
露点 -1 °C
相对湿度 47%
风寒 8 °C
Kp-index 0 (0-9)

评论

RWY08 09004KT

白天

日出
07:40 (11:24)
中午
13:11
日落
18:42

小工具

你想在你的网站上有一个关于Sivrihisar Airport的当前航空天气(METAR)的小部件吗?

显示HTML代码
?>